Bailey Island, Maine
Current Conditions -  °F | °C
As of 4:51 PM on Wednesday 22 Oct 2014 (Local Time) from KPWM Reporting Station
Light Rain Light Rain  
Wind Chill: 43°   Ceiling: 1000
Heat Index: 49°   Visibility: 1.5mi
Dew Point: 46°   Wind: 15mph
Humidity: 90%   Direction: 40°NE
Pressure: 30.04"   Gusts: 30mph
Location:  43.73°N, 70°W
Report Text: KPWM 222051Z 04013G26KT 1 1/2SM -RA BR BKN010 OVC016 09/08 A3004 RMK AO2 PK WND 03029/1954 SLP172 P0005 60013 T00940078 55001
Loading
Personal Weather Stations






























Interactive Weather Map
Tropical Storm Tracking
New forecast layout! Learn more

10-Day Weather Forecast

Advertisements
Track Severe Weather on mobile